Terminal Aerodrome Forecast
Issued by NWS Norman, OK

Home | Current Version | Previous Version | Text Only | Print | Product List | Glossary On
Versions: 1 2 3 4 5 6 7 8 9 10 11 12 13 14 15 16 17 18 19 20 21 22 23 24 25
000
FTUS44 KOUN 212334
TAFSPS
TAF
KSPS 212334Z 2200/2224 VRB04KT P6SM SCT030 SCT220
     FM220300 15007KT 5SM BR OVC008
      TEMPO 2204/2208 2SM -SHRA BR OVC005
     FM220800 15008KT 3SM -SHRA BR OVC004
      TEMPO 2208/2212 1SM -TSRA BR BKN003 OVC006CB
     FM221200 15011KT 3SM -TSRA BR OVC006CB
     FM222100 16013KT 4SM -SHRA BR OVC010=

USA.gov is the U.S. government's official web portal to all federal, state and local government web resources and services.